Pagrindinis puslapis
METAR-TAF:

METAR-TAF

Oro uostai :

Erbilis, Irakas

platuma: 36-14-15N, ilguma: 43-57-47E, Aukštis: 415 m

Dabartinis oras

Ataskaita buvo paskelbta 21 minutes, ne 06:00 UTC
Vėjas 14 kt iš Rytų/Pietryčių
Temperatūra 28°C
Drėgmė 32%
Slėgis 1010 hPa
Matomumas: 9000 m
Mažai debesys ne aukštis 4000 ft

METAR: ORER 220600Z 11014KT 9000 FEW040 28/10 Q1010

Laikas: 09:21 (06:21 UTC)

Prognozė

Ataskaita buvo paskelbta 1 valandą ir 21 minutes, ne 05:00 UTC
Prognozė galioja nuo 22 metu 06 UTC su 23 metu 06 UTC
Vėjas 10 kt iš Rytų/Šiaurės Rytų
Matomumas: 7000 m
Mažai debesys ne aukštis 3000 ft
Išsisklaidę debesys ne aukštis 4000 ft
Tapsmas
nuo 22 metu 07 UTC su 22 metu 09 UTC
Vėjas 10 kt iš Šiaurės Vakarų
Tikimybė 30% :
Laikinai
nuo 22 metu 09 UTC su 22 metu 15 UTC
Mažai debesys ne aukštis 3000 ft, Liūtiniai kamuoliniai debesys.
perkūnija, lietus,

TAF: ORER 220500Z 2206/2306 07010KT 7000 FEW030 SCT040 BECMG 2207/2209 31010KT PROB30 TEMPO 2209/2215 -TSRA FEW030CB

Orai ataskaitas ir orų prognozės (METAR, TAF).

turimą stotys yra geltonos ir raudonos taškus žemėlapyje.

Perkelti pele per norėdami pamatyti stoties vardą.

Tada spustelėkite, norėdami matyti oro stebėjimo ir prognozės.

Norėdami pakeisti žemėlapį: spustelėkite ant žalios mygtukų su juodo kryžiaus žemyn,; žalią mygtuką su brūkšneliu, jei norite nutolinti; arba žalių rodyklių gretimoms žemėlapius.


METAR-TAF: